createdAt,value
2023-05-01T00:02:06.564Z,101314.53
2023-05-01T00:04:34.324Z,101308.41
2023-05-01T00:07:00.985Z,101322.50
2023-05-01T00:09:28.306Z,101312.88
2023-05-01T00:11:55.026Z,101322.56
2023-05-01T00:14:21.683Z,101320.81
2023-05-01T00:16:48.545Z,101315.59
2023-05-01T00:19:19.078Z,101319.13
2023-05-01T00:21:48.039Z,101320.03
2023-05-01T00:24:17.918Z,101316.56
2023-05-01T00:26:45.168Z,101316.59
2023-05-01T00:29:11.894Z,101318.41
2023-05-01T00:31:38.595Z,101320.16
2023-05-01T00:34:05.295Z,101321.03
2023-05-01T00:36:32.167Z,101311.34
2023-05-01T00:38:58.919Z,101310.53
2023-05-01T00:41:25.836Z,101307.91
2023-05-01T00:43:52.664Z,101309.69
2023-05-01T00:46:19.768Z,101305.38
2023-05-01T00:48:46.512Z,101301.00
2023-05-01T00:51:14.058Z,101294.00
2023-05-01T00:53:41.903Z,101299.28
2023-05-01T00:56:08.875Z,101301.03
2023-05-01T00:58:35.835Z,101298.41
2023-05-01T01:01:02.519Z,101299.31
2023-05-01T01:03:29.173Z,101299.38
2023-05-01T01:06:27.974Z,101292.44
2023-05-01T01:09:29.340Z,101303.03
2023-05-01T01:12:47.007Z,101304.88
2023-05-01T01:15:28.890Z,101304.94
2023-05-01T01:18:37.764Z,101305.00
2023-05-01T01:21:27.588Z,101308.56
2023-05-01T01:24:12.719Z,101298.06
2023-05-01T01:26:54.613Z,101298.97
2023-05-01T01:29:33.322Z,101300.75
2023-05-01T01:32:24.779Z,101296.38
2023-05-01T01:34:55.536Z,101295.50
2023-05-01T01:37:33.029Z,101289.41
2023-05-01T01:40:14.120Z,101293.81
2023-05-01T01:42:45.074Z,101287.72
2023-05-01T01:45:25.289Z,101291.22
2023-05-01T01:47:54.951Z,101285.09
2023-05-01T01:50:25.016Z,101283.34
2023-05-01T01:52:53.248Z,101281.59
2023-05-01T01:55:25.548Z,101274.59
2023-05-01T01:57:53.534Z,101284.25
2023-05-01T02:00:21.835Z,101278.13
2023-05-01T02:02:49.908Z,101280.75
2023-05-01T02:05:18.097Z,101273.75
2023-05-01T02:07:48.924Z,101275.50
2023-05-01T02:10:19.156Z,101275.53
2023-05-01T02:12:48.334Z,101273.75
2023-05-01T02:15:18.528Z,101265.84
2023-05-01T02:17:45.323Z,101264.09
2023-05-01T02:20:13.651Z,101267.63
2023-05-01T02:22:42.113Z,101268.47
2023-05-01T02:25:13.472Z,101258.84
2023-05-01T02:28:02.742Z,101257.03
2023-05-01T02:30:29.561Z,101255.34
2023-05-01T02:32:57.572Z,101248.31
2023-05-01T02:35:24.576Z,101250.06
2023-05-01T02:37:51.593Z,101251.84
2023-05-01T02:40:18.644Z,101249.25
2023-05-01T02:42:46.135Z,101250.16
2023-05-01T02:45:25.254Z,101247.53
2023-05-01T02:47:56.690Z,101236.13
2023-05-01T02:50:24.989Z,101236.16
2023-05-01T02:52:51.797Z,101235.28
2023-05-01T02:55:18.535Z,101235.28
2023-05-01T02:57:45.175Z,101237.88
2023-05-01T03:00:14.349Z,101223.88
2023-05-01T03:02:41.324Z,101227.38
2023-05-01T03:05:08.705Z,101223.00
2023-05-01T03:07:35.708Z,101220.38
2023-05-01T03:10:04.513Z,101225.63
2023-05-01T03:12:31.605Z,101225.63
2023-05-01T03:14:58.403Z,101224.75
2023-05-01T03:17:25.171Z,101223.91
2023-05-01T03:19:52.061Z,101224.75
2023-05-01T03:22:19.017Z,101216.91
2023-05-01T03:24:47.500Z,101208.13
2023-05-01T03:27:14.168Z,101219.47
2023-05-01T03:29:40.881Z,101221.22
2023-05-01T03:32:07.572Z,101219.47
2023-05-01T03:34:34.547Z,101219.44
2023-05-01T03:37:01.413Z,101214.19
2023-05-01T03:39:28.016Z,101211.53
2023-05-01T03:41:54.774Z,101200.16
2023-05-01T03:44:21.518Z,101211.53
2023-05-01T03:46:48.314Z,101211.53
2023-05-01T03:49:15.093Z,101212.38
2023-05-01T03:51:41.826Z,101212.38
2023-05-01T03:54:08.456Z,101211.50
2023-05-01T03:56:36.624Z,101203.59
2023-05-01T03:59:03.363Z,101206.22
2023-05-01T04:01:30.064Z,101207.09
2023-05-01T04:03:56.862Z,101209.66
2023-05-01T04:06:23.825Z,101201.75
2023-05-01T04:08:50.463Z,101200.00
2023-05-01T04:11:17.275Z,101203.44
2023-05-01T04:13:44.018Z,101199.91
2023-05-01T04:16:10.787Z,101193.75
2023-05-01T04:18:37.477Z,101193.72
2023-05-01T04:21:04.594Z,101191.06
2023-05-01T04:23:31.409Z,101188.38
2023-05-01T04:25:58.085Z,101190.06
2023-05-01T04:28:24.785Z,101187.41
2023-05-01T04:30:51.475Z,101189.09
2023-05-01T04:33:18.078Z,101197.81
2023-05-01T04:35:44.704Z,101186.38
2023-05-01T04:38:11.717Z,101195.03
2023-05-01T04:40:38.370Z,101182.72
2023-05-01T04:43:05.421Z,101187.94
2023-05-01T04:45:32.573Z,101187.00
2023-05-01T04:47:59.231Z,101193.94
2023-05-01T04:50:25.988Z,101189.53
2023-05-01T04:52:52.683Z,101187.78
2023-05-01T04:55:19.357Z,101186.00
2023-05-01T04:57:46.244Z,101193.88
2023-05-01T05:00:13.258Z,101180.66
2023-05-01T05:02:40.014Z,101184.97
2023-05-01T05:05:06.927Z,101191.09
2023-05-01T05:07:33.554Z,101189.31
2023-05-01T05:10:00.185Z,101184.00
2023-05-01T05:12:27.032Z,101186.59
2023-05-01T05:14:53.653Z,101185.63
2023-05-01T05:17:20.664Z,101183.75
2023-05-01T05:19:47.361Z,101185.47
2023-05-01T05:22:14.002Z,101181.13
2023-05-01T05:24:40.653Z,101187.25
2023-05-01T05:27:07.314Z,101188.09
2023-05-01T05:29:35.110Z,101178.38
2023-05-01T05:32:01.966Z,101173.09
2023-05-01T05:34:28.782Z,101182.78
2023-05-01T05:36:55.467Z,101183.72
2023-05-01T05:39:23.810Z,101181.94
2023-05-01T05:41:52.493Z,101181.00
2023-05-01T05:44:19.208Z,101178.28
2023-05-01T05:46:45.886Z,101176.47
2023-05-01T05:49:12.695Z,101178.22
2023-05-01T05:51:39.337Z,101188.00
2023-05-01T05:54:05.991Z,101184.56
2023-05-01T05:56:32.732Z,101176.72
2023-05-01T05:59:03.042Z,101181.97
2023-05-01T06:01:29.732Z,101168.72
2023-05-01T06:03:56.702Z,101173.09
2023-05-01T06:06:23.749Z,101169.50
2023-05-01T06:08:50.471Z,101167.66
2023-05-01T06:11:17.713Z,101172.88
2023-05-01T06:13:44.339Z,101168.44
2023-05-01T06:16:11.071Z,101167.47
2023-05-01T06:18:38.010Z,101173.56
2023-05-01T06:21:04.805Z,101168.16
2023-05-01T06:23:31.946Z,101175.06
2023-05-01T06:25:58.951Z,101172.41
2023-05-01T06:28:25.778Z,101165.38
2023-05-01T06:30:52.522Z,101167.94
2023-05-01T06:33:19.501Z,101167.94
2023-05-01T06:35:46.292Z,101160.91
2023-05-01T06:38:12.888Z,101163.44
2023-05-01T06:40:39.747Z,101155.47
2023-05-01T06:43:06.582Z,101158.84
2023-05-01T06:45:33.847Z,101155.25
2023-05-01T06:48:00.621Z,101170.03
2023-05-01T06:50:28.849Z,101156.63
2023-05-01T06:52:55.560Z,101153.88
2023-05-01T06:55:22.355Z,101154.69
2023-05-01T06:57:48.950Z,101151.16
2023-05-01T07:00:16.851Z,101145.75
2023-05-01T07:02:45.435Z,101148.13
2023-05-01T07:05:13.276Z,101156.00
2023-05-01T07:07:44.590Z,101156.91
2023-05-01T07:10:17.105Z,101150.84
2023-05-01T07:12:43.852Z,101143.88
2023-05-01T07:15:10.650Z,101155.41
2023-05-01T07:17:37.380Z,101153.72
2023-05-01T07:20:05.152Z,101151.91
2023-05-01T07:22:31.927Z,101151.78
2023-05-01T07:24:58.615Z,101153.38
2023-05-01T07:27:25.376Z,101156.66
2023-05-01T07:29:52.018Z,101144.25
2023-05-01T07:32:18.720Z,101138.03
2023-05-01T07:34:45.492Z,101138.72
2023-05-01T07:37:12.308Z,101137.75
2023-05-01T07:39:38.956Z,101138.56
2023-05-01T07:42:05.650Z,101139.38
2023-05-01T07:44:32.288Z,101126.13
2023-05-01T07:47:06.384Z,101125.28
2023-05-01T07:49:39.394Z,101133.22
2023-05-01T07:52:08.853Z,101122.59
2023-05-01T07:54:35.496Z,101119.84
2023-05-01T07:57:02.197Z,101118.91
2023-05-01T07:59:29.144Z,101117.94
2023-05-01T08:01:56.903Z,101116.91
2023-05-01T08:04:23.682Z,101116.72
2023-05-01T08:06:51.722Z,101118.38
2023-05-01T08:09:18.495Z,101110.63
2023-05-01T08:11:45.175Z,101122.00
2023-05-01T08:14:11.937Z,101123.66
2023-05-01T08:16:38.731Z,101123.47
2023-05-01T08:19:05.680Z,101125.13
2023-05-01T08:21:32.423Z,101110.09
2023-05-01T08:23:59.022Z,101118.78
2023-05-01T08:26:25.692Z,101126.47
2023-05-01T08:28:52.421Z,101114.06
2023-05-01T08:31:19.580Z,101122.88
2023-05-01T08:33:46.296Z,101121.22
2023-05-01T08:36:13.108Z,101119.41
2023-05-01T08:38:39.758Z,101116.00
2023-05-01T08:41:06.533Z,101116.06
2023-05-01T08:43:33.206Z,101116.88
2023-05-01T08:46:03.202Z,101117.59
2023-05-01T08:48:30.229Z,101115.78
2023-05-01T08:50:59.475Z,101118.38
2023-05-01T08:53:27.369Z,101112.78
2023-05-01T08:55:56.726Z,101113.75
2023-05-01T08:58:25.096Z,101118.97
2023-05-01T09:00:53.145Z,101117.03
2023-05-01T09:03:21.458Z,101111.59
2023-05-01T09:05:48.934Z,101118.72
2023-05-01T09:08:16.043Z,101109.88
2023-05-01T09:10:46.203Z,101115.16
2023-05-01T09:13:12.915Z,101116.75
2023-05-01T09:15:39.767Z,101107.72
2023-05-01T09:18:09.008Z,101104.09
2023-05-01T09:20:37.595Z,101108.53
2023-05-01T09:23:04.652Z,101101.50
2023-05-01T09:25:31.704Z,101092.56
2023-05-01T09:27:58.402Z,101095.06
2023-05-01T09:30:35.361Z,101094.13
2023-05-01T09:33:12.492Z,101089.00
2023-05-01T09:35:55.567Z,101081.22
2023-05-01T09:38:24.349Z,101083.09
2023-05-01T09:40:52.653Z,101077.81
2023-05-01T09:43:28.878Z,101071.50
2023-05-01T09:46:09.605Z,101077.63
2023-05-01T09:48:37.651Z,101066.00
2023-05-01T09:51:22.459Z,101080.88
2023-05-01T09:53:49.686Z,101066.84
2023-05-01T09:56:17.368Z,101067.78
2023-05-01T09:58:44.624Z,101065.91
2023-05-01T10:01:11.392Z,101064.88
2023-05-01T10:03:38.239Z,101064.66
2023-05-01T10:06:05.416Z,101054.88
2023-05-01T10:09:06.978Z,101054.19
2023-05-01T10:11:54.516Z,101050.81
2023-05-01T10:14:23.989Z,101042.94
2023-05-01T10:16:53.112Z,101045.66
2023-05-01T10:19:20.307Z,101031.50
2023-05-01T10:21:47.155Z,101025.25
2023-05-01T10:24:16.331Z,101032.81
2023-05-01T10:26:46.433Z,101022.97
2023-05-01T10:29:13.136Z,101024.66
2023-05-01T10:31:42.324Z,101024.88
2023-05-01T10:34:10.396Z,101020.91
2023-05-01T10:36:47.703Z,101005.25
2023-05-01T10:39:33.361Z,101005.94
2023-05-01T10:42:08.702Z,101000.31
2023-05-01T10:44:35.540Z,101004.53
2023-05-01T10:47:44.396Z,101011.38
2023-05-01T10:50:12.812Z,100998.13
2023-05-01T10:53:14.500Z,100998.97
2023-05-01T10:55:46.210Z,100991.75
2023-05-01T10:58:14.690Z,100987.31
2023-05-01T11:00:42.461Z,100979.31
2023-05-01T11:03:24.534Z,100981.00
2023-05-01T11:06:00.948Z,100975.75
2023-05-01T11:08:39.023Z,100969.84
2023-05-01T11:11:23.683Z,100970.03
2023-05-01T11:13:57.638Z,100961.19
2023-05-01T11:16:42.268Z,100966.50
2023-05-01T11:19:21.243Z,100960.28
2023-05-01T11:21:48.529Z,100962.06
2023-05-01T11:24:15.311Z,100954.91
2023-05-01T11:26:42.971Z,100948.72
2023-05-01T11:29:11.271Z,100954.88
2023-05-01T11:31:39.167Z,100943.38
2023-05-01T11:34:08.749Z,100947.72
2023-05-01T11:36:52.270Z,100933.59
2023-05-01T11:39:19.888Z,100931.72
2023-05-01T11:41:47.764Z,100935.16
2023-05-01T11:44:18.547Z,100929.88
2023-05-01T11:46:45.558Z,100931.53
2023-05-01T11:49:12.411Z,100932.16
2023-05-01T11:51:39.159Z,100933.00
2023-05-01T11:54:11.050Z,100933.19
2023-05-01T11:56:41.093Z,100927.38
2023-05-01T11:59:19.080Z,100932.94
2023-05-01T12:01:47.083Z,100927.78
2023-05-01T12:04:24.740Z,100936.75
2023-05-01T12:06:51.616Z,100940.34
2023-05-01T12:09:23.714Z,100932.56
2023-05-01T12:11:52.761Z,100921.31
2023-05-01T12:14:21.680Z,100925.03
2023-05-01T12:16:49.565Z,100911.00
2023-05-01T12:19:17.585Z,100912.88
2023-05-01T12:21:44.437Z,100909.38
2023-05-01T12:24:17.408Z,100908.69
2023-05-01T12:26:45.448Z,100908.06
2023-05-01T12:29:12.471Z,100902.97
2023-05-01T12:31:48.300Z,100904.09
2023-05-01T12:34:15.137Z,100909.47
2023-05-01T12:36:41.867Z,100906.03
2023-05-01T12:39:11.702Z,100910.59
2023-05-01T12:41:39.721Z,100902.88
2023-05-01T12:44:19.503Z,100893.34
2023-05-01T12:47:03.865Z,100895.28
2023-05-01T12:49:32.469Z,100890.94
2023-05-01T12:52:03.688Z,100892.78
2023-05-01T12:54:44.010Z,100889.31
2023-05-01T12:57:15.582Z,100885.84
2023-05-01T12:59:45.354Z,100892.06
2023-05-01T13:02:16.064Z,100884.22
2023-05-01T13:04:50.000Z,100878.97
2023-05-01T13:07:19.026Z,100871.00
2023-05-01T13:09:58.319Z,100873.59
2023-05-01T13:12:26.742Z,100868.38
2023-05-01T13:14:54.396Z,100865.78
2023-05-01T13:17:29.497Z,100858.84
2023-05-01T13:20:02.166Z,100857.13
2023-05-01T13:22:33.931Z,100859.91
2023-05-01T13:25:03.926Z,100845.25
2023-05-01T13:27:30.829Z,100851.63
2023-05-01T13:29:59.430Z,100836.75
2023-05-01T13:32:27.295Z,100841.97
2023-05-01T13:34:54.447Z,100846.34
2023-05-01T13:37:24.142Z,100832.25
2023-05-01T13:39:50.776Z,100831.41
2023-05-01T13:42:25.114Z,100828.84
2023-05-01T13:44:53.884Z,100821.81
2023-05-01T13:47:23.242Z,100824.53
2023-05-01T13:49:49.989Z,100820.25
2023-05-01T13:52:19.012Z,100817.69
2023-05-01T13:54:47.854Z,100811.69
2023-05-01T13:57:18.634Z,100812.66
2023-05-01T13:59:46.991Z,100806.41
2023-05-01T14:02:20.694Z,100802.81
2023-05-01T14:04:48.158Z,100795.69
2023-05-01T14:07:19.304Z,100790.34
2023-05-01T14:09:57.302Z,100793.13
2023-05-01T14:12:28.222Z,100789.75
2023-05-01T14:14:55.008Z,100782.69
2023-05-01T14:17:35.780Z,100773.03
2023-05-01T14:20:04.896Z,100769.53
2023-05-01T14:22:45.071Z,100767.84
2023-05-01T14:25:25.253Z,100758.97
2023-05-01T14:27:53.597Z,100757.28
2023-05-01T14:30:27.745Z,100755.66
2023-05-01T14:32:55.428Z,100743.47
2023-05-01T14:35:24.579Z,100745.41
2023-05-01T14:37:51.478Z,100736.69
2023-05-01T14:40:21.974Z,100728.78
2023-05-01T14:42:49.023Z,100721.88
2023-05-01T14:45:19.216Z,100721.88
2023-05-01T14:47:47.289Z,100708.66
2023-05-01T14:50:20.898Z,100709.44
2023-05-01T14:52:52.819Z,100699.84
2023-05-01T14:55:25.590Z,100695.41
2023-05-01T14:57:52.732Z,100689.34
2023-05-01T15:00:19.648Z,100679.69
2023-05-01T15:02:46.531Z,100672.69
2023-05-01T15:05:14.303Z,100666.66
2023-05-01T15:07:42.002Z,100659.72
2023-05-01T15:10:09.476Z,100652.72
2023-05-01T15:12:36.521Z,100641.25
2023-05-01T15:15:03.310Z,100650.97
2023-05-01T15:17:31.157Z,100631.78
2023-05-01T15:19:59.079Z,100618.69
2023-05-01T15:22:25.800Z,100624.91
2023-05-01T15:24:52.512Z,100606.47
2023-05-01T15:27:19.222Z,100606.53
2023-05-01T15:29:45.827Z,100595.97
2023-05-01T15:32:13.133Z,100595.13
2023-05-01T15:34:41.300Z,100596.88
2023-05-01T15:37:08.268Z,100594.22
2023-05-01T15:39:34.931Z,100594.22
2023-05-01T15:42:02.410Z,100598.50
2023-05-01T15:44:29.222Z,100599.25
2023-05-01T15:46:56.159Z,100595.81
2023-05-01T15:49:23.097Z,100573.72
2023-05-01T15:51:49.731Z,100571.78
2023-05-01T15:54:16.493Z,100606.03
2023-05-01T15:56:43.140Z,100633.63
2023-05-01T15:59:10.187Z,100588.34
2023-05-01T16:01:37.364Z,100569.94
2023-05-01T16:04:04.769Z,100563.63
2023-05-01T16:06:31.626Z,100556.44
2023-05-01T16:08:59.412Z,100558.88
2023-05-01T16:11:26.186Z,100548.25
2023-05-01T16:13:54.998Z,100555.16
2023-05-01T16:16:30.496Z,100522.47
2023-05-01T16:18:58.764Z,100532.13
2023-05-01T16:21:26.864Z,100534.75
2023-05-01T16:23:56.669Z,100534.69
2023-05-01T16:26:28.480Z,100528.38
2023-05-01T16:29:00.195Z,100518.63
2023-05-01T16:31:27.899Z,100512.56
2023-05-01T16:33:54.957Z,100490.50
2023-05-01T16:36:21.866Z,100518.59
2023-05-01T16:38:48.592Z,100505.56
2023-05-01T16:41:16.831Z,100464.16
2023-05-01T16:43:45.136Z,100515.19
2023-05-01T16:46:15.288Z,100519.84
2023-05-01T16:48:42.547Z,100489.16
2023-05-01T16:51:10.352Z,100485.53
2023-05-01T16:53:37.289Z,100480.97
2023-05-01T16:56:04.959Z,100472.94
2023-05-01T16:58:31.916Z,100466.59
2023-05-01T17:00:58.716Z,100474.44
2023-05-01T17:03:26.938Z,100467.34
2023-05-01T17:05:53.686Z,100468.97
2023-05-01T17:08:20.503Z,100463.69
2023-05-01T17:10:47.241Z,100454.91
2023-05-01T17:13:15.537Z,100451.34
2023-05-01T17:15:42.308Z,100453.06
2023-05-01T17:18:09.016Z,100484.59
2023-05-01T17:20:35.931Z,100476.91
2023-05-01T17:23:02.753Z,100459.50
2023-05-01T17:25:29.448Z,100448.13
2023-05-01T17:27:56.133Z,100448.00
2023-05-01T17:30:22.871Z,100439.94
2023-05-01T17:32:49.677Z,100437.22
2023-05-01T17:35:17.132Z,100433.63
2023-05-01T17:37:43.813Z,100434.38
2023-05-01T17:40:13.770Z,100429.88
2023-05-01T17:42:40.565Z,100432.44
2023-05-01T17:45:10.565Z,100427.91
2023-05-01T17:47:41.729Z,100431.34
2023-05-01T17:50:10.560Z,100426.06
2023-05-01T17:52:37.711Z,100426.97
2023-05-01T17:55:05.683Z,100411.97
2023-05-01T17:57:32.915Z,100420.69
2023-05-01T18:00:00.227Z,100411.00
2023-05-01T18:02:27.406Z,100410.91
2023-05-01T18:04:55.323Z,100403.72
2023-05-01T18:07:22.209Z,100400.13
2023-05-01T18:09:48.937Z,100399.13
2023-05-01T18:12:15.581Z,100385.91
2023-05-01T18:14:42.272Z,100385.88
2023-05-01T18:17:09.153Z,100374.41
2023-05-01T18:19:35.881Z,100374.41
2023-05-01T18:22:04.238Z,100371.75
2023-05-01T18:24:31.112Z,100370.84
2023-05-01T18:26:59.542Z,100363.84
2023-05-01T18:29:27.516Z,100358.38
2023-05-01T18:31:57.427Z,100347.78
2023-05-01T18:34:25.313Z,100349.56
2023-05-01T18:36:55.154Z,100350.31
2023-05-01T18:39:22.480Z,100336.19
2023-05-01T18:41:49.902Z,100339.66
2023-05-01T18:44:18.482Z,100334.31
2023-05-01T18:46:45.264Z,100325.47
2023-05-01T18:49:12.065Z,100324.59
2023-05-01T18:51:38.916Z,100329.78
2023-05-01T18:54:10.157Z,100320.97
2023-05-01T18:56:37.270Z,100319.06
2023-05-01T18:59:03.900Z,100326.00
2023-05-01T19:01:30.670Z,100314.41
2023-05-01T19:03:59.446Z,100323.16
2023-05-01T19:06:27.000Z,100320.44
2023-05-01T19:08:53.760Z,100324.78
2023-05-01T19:11:21.654Z,100315.91
2023-05-01T19:13:48.899Z,100307.91
2023-05-01T19:16:15.646Z,100313.09
2023-05-01T19:18:42.356Z,100308.63
2023-05-01T19:21:09.213Z,100303.28
2023-05-01T19:23:37.542Z,100302.41
2023-05-01T19:26:06.202Z,100302.22
2023-05-01T19:28:32.827Z,100303.03
2023-05-01T19:30:59.494Z,100294.09
2023-05-01T19:33:26.276Z,100295.78
2023-05-01T19:35:52.955Z,100290.44
2023-05-01T19:38:19.588Z,100291.31
2023-05-01T19:40:46.226Z,100289.41
2023-05-01T19:43:15.961Z,100286.69
2023-05-01T19:45:43.750Z,100277.88
2023-05-01T19:48:10.586Z,100278.66
2023-05-01T19:50:37.255Z,100285.63
2023-05-01T19:53:05.414Z,100270.63
2023-05-01T19:55:32.371Z,100275.78
2023-05-01T19:57:59.032Z,100273.16
2023-05-01T20:00:27.553Z,100264.34
2023-05-01T20:02:54.476Z,100260.84
2023-05-01T20:05:27.955Z,100256.53
2023-05-01T20:07:56.050Z,100261.75
2023-05-01T20:10:22.778Z,100259.06
2023-05-01T20:12:49.771Z,100244.97
2023-05-01T20:15:16.987Z,100255.44
2023-05-01T20:17:44.872Z,100238.66
2023-05-01T20:20:11.780Z,100241.28
2023-05-01T20:22:38.422Z,100241.19
2023-05-01T20:25:06.878Z,100235.91
2023-05-01T20:27:35.731Z,100238.53
2023-05-01T20:30:02.775Z,100235.91
2023-05-01T20:32:29.546Z,100232.31
2023-05-01T20:34:57.124Z,100234.00
2023-05-01T20:37:24.008Z,100233.91
2023-05-01T20:39:50.656Z,100229.56
2023-05-01T20:42:17.406Z,100225.94
2023-05-01T20:44:44.610Z,100227.66
2023-05-01T20:47:11.441Z,100236.44
2023-05-01T20:49:38.112Z,100226.69
2023-05-01T20:52:04.926Z,100229.31
2023-05-01T20:54:32.906Z,100220.47
2023-05-01T20:57:00.199Z,100224.81
2023-05-01T20:59:26.796Z,100219.53
2023-05-01T21:01:53.497Z,100218.66
2023-05-01T21:04:20.223Z,100216.97
2023-05-01T21:06:46.936Z,100210.81
2023-05-01T21:09:14.998Z,100205.63
2023-05-01T21:11:41.788Z,100210.00
2023-05-01T21:14:09.067Z,100212.72
2023-05-01T21:16:36.359Z,100203.91
2023-05-01T21:19:03.750Z,100210.97
2023-05-01T21:21:31.391Z,100221.50
2023-05-01T21:23:58.016Z,100212.72
2023-05-01T21:26:24.961Z,100208.28
2023-05-01T21:28:51.715Z,100212.72
2023-05-01T21:31:18.482Z,100205.63
2023-05-01T21:33:47.940Z,100206.50
2023-05-01T21:36:18.038Z,100202.06
2023-05-01T21:38:46.080Z,100205.63
2023-05-01T21:41:15.264Z,100202.91
2023-05-01T21:43:42.077Z,100205.63
2023-05-01T21:46:14.725Z,100197.63
2023-05-01T21:48:41.387Z,100188.91
2023-05-01T21:51:08.608Z,100198.47
2023-05-01T21:53:35.289Z,100194.13
2023-05-01T21:56:03.071Z,100192.34
2023-05-01T21:58:29.897Z,100194.13
2023-05-01T22:00:56.749Z,100196.75
2023-05-01T22:03:25.070Z,100196.75
2023-05-01T22:05:53.313Z,100194.94
2023-05-01T22:08:20.091Z,100195.78
2023-05-01T22:10:46.795Z,100201.00
2023-05-01T22:13:13.488Z,100192.16
2023-05-01T22:15:40.167Z,100192.16
2023-05-01T22:18:07.032Z,100192.94
2023-05-01T22:20:33.782Z,100192.94
2023-05-01T22:23:01.224Z,100187.66
2023-05-01T22:25:28.583Z,100186.88
2023-05-01T22:27:55.283Z,100195.72
2023-05-01T22:30:21.981Z,100195.78
2023-05-01T22:32:48.622Z,100197.63
2023-05-01T22:35:15.299Z,100209.13
2023-05-01T22:37:41.948Z,100203.03
2023-05-01T22:40:09.089Z,100229.75
2023-05-01T22:42:36.100Z,100227.63
2023-05-01T22:45:02.767Z,100229.75
2023-05-01T22:47:29.403Z,100236.31
2023-05-01T22:49:56.222Z,100235.88
2023-05-01T22:52:22.988Z,100232.72
2023-05-01T22:54:52.551Z,100241.78
2023-05-01T22:57:19.198Z,100243.91
2023-05-01T22:59:46.064Z,100245.25
2023-05-01T23:02:17.523Z,100236.84
2023-05-01T23:04:44.611Z,100236.28
2023-05-01T23:07:13.630Z,100240.91
2023-05-01T23:09:40.753Z,100239.25
2023-05-01T23:12:07.637Z,100242.03
2023-05-01T23:14:45.727Z,100246.53
2023-05-01T23:17:15.775Z,100237.75
2023-05-01T23:19:43.706Z,100236.84
2023-05-01T23:22:12.484Z,100238.59
2023-05-01T23:24:41.610Z,100238.53
2023-05-01T23:27:08.445Z,100235.78
2023-05-01T23:29:35.789Z,100240.09
2023-05-01T23:32:03.042Z,100241.91
2023-05-01T23:34:29.765Z,100236.66
2023-05-01T23:36:56.361Z,100240.09
2023-05-01T23:39:23.089Z,100247.22
2023-05-01T23:41:50.585Z,100248.13
2023-05-01T23:44:17.419Z,100255.28
2023-05-01T23:46:44.265Z,100263.31
2023-05-01T23:49:11.554Z,100261.69
2023-05-01T23:51:38.312Z,100256.53
2023-05-01T23:54:04.955Z,100254.03
2023-05-01T23:56:31.684Z,100255.09
2023-05-01T23:58:58.348Z,100252.53
